Time;durP1;ratioP1;P1;durP2;ratioP2;P2;SDS_P1;SDS_P2;PMS_P1;PMS_P2;Temp;Humidity;BMP_temperature;BMP_pressure;BME280_temperature;BME280_humidity;BME280_pressure;Samples;Min_cycle;Max_cycle;Signal;HPM_P1;HPM_P2
2023/03/17 00:00:09;;;;;;;;;;;;;;;;;;5076312;28;19943;-72
2023/03/17 00:02:35;;;;;;;;;;;;;;;;;;5076312;28;19996;-73
2023/03/17 00:05:01;;;;;;;;;;;;;;;;;;5074962;28;19913;-73
2023/03/17 00:07:27;;;;;;;;;;;;;;;;;;5076182;28;19955;-73
2023/03/17 00:09:53;;;;;;;;;;;;;;;;;;5076105;28;19956;-74
2023/03/17 00:12:19;;;;;;;;;;;;;;;;;;5074793;28;19909;-71
2023/03/17 00:14:46;;;;;;;;;;;;;;;;;;5076293;28;19908;-73
2023/03/17 00:17:12;;;;;;;;;;;;;;;;;;5076033;28;19909;-73
2023/03/17 00:19:39;;;;;;;;;;;;;;;;;;5076015;28;19909;-72
2023/03/17 00:22:05;;;;;;;;;;;;;;;;;;5076324;28;19916;-73
2023/03/17 00:24:31;;;;;;;;;;;;;;;;;;5076132;28;20006;-74
2023/03/17 00:26:57;;;;;;;;;;;;;;;;;;5075944;28;20337;-73
2023/03/17 00:29:24;;;;;;;;;;;;;;;;;;5075725;28;19912;-72
2023/03/17 00:31:50;;;;;;;;;;;;;;;;;;5075970;28;19909;-75
2023/03/17 00:34:16;;;;;;;;;;;;;;;;;;5075871;28;19916;-73
2023/03/17 00:36:42;;;;;;;;;;;;;;;;;;5075640;28;19908;-73
2023/03/17 00:39:07;;;;;;;;;;;;;;;;;;5075243;28;20011;-73
2023/03/17 00:41:33;;;;;;;;;;;;;;;;;;5075749;28;19908;-74
2023/03/17 00:44:00;;;;;;;;;;;;;;;;;;5075507;28;20281;-74
2023/03/17 00:46:27;;;;;;;;;;;;;;;;;;5074117;28;19908;-73
2023/03/17 00:48:53;;;;;;;;;;;;;;;;;;5075336;28;20020;-74
2023/03/17 00:51:19;;;;;;;;;;;;;;;;;;5075355;28;19963;-73
2023/03/17 00:53:45;;;;;;;;;;;;;;;;;;5074028;28;20369;-73
2023/03/17 00:56:12;;;;;;;;;;;;;;;;;;5075200;28;20042;-73
2023/03/17 00:58:38;;;;;;;;;;;;;;;;;;5075202;28;19945;-74
2023/03/17 01:01:04;;;;;;;;;;;;;;;;;;5073897;28;19909;-73
2023/03/17 01:03:31;;;;;;;;;;;;;;;;;;5075187;28;19999;-73
2023/03/17 01:05:58;;;;;;;;;;;;;;;;;;5075056;28;19920;-73
2023/03/17 01:08:24;;;;;;;;;;;;;;;;;;5074945;28;19912;-72
2023/03/17 01:10:50;;;;;;;;;;;;;;;;;;5074985;28;19908;-73
2023/03/17 01:13:16;;;;;;;;;;;;;;;;;;5074900;28;19962;-73
2023/03/17 01:15:42;;;;;;;;;;;;;;;;;;5073615;28;19909;-73
2023/03/17 01:18:08;;;;;;;;;;;;;;;;;;5074838;28;19947;-72
2023/03/17 01:20:34;;;;;;;;;;;;;;;;;;5074977;28;19908;-73
2023/03/17 01:23:03;;;;;;;;;;;;;;;;;;5074880;28;20296;-73
2023/03/17 01:25:29;;;;;;;;;;;;;;;;;;5074669;28;19909;-72
2023/03/17 01:27:58;;;;;;;;;;;;;;;;;;5074689;28;19915;-73
2023/03/17 01:30:24;;;;;;;;;;;;;;;;;;5074508;28;19912;-73
2023/03/17 01:32:50;;;;;;;;;;;;;;;;;;5074732;28;19909;-73
2023/03/17 01:35:17;;;;;;;;;;;;;;;;;;5074705;28;19909;-74
2023/03/17 01:37:44;;;;;;;;;;;;;;;;;;5074509;28;20365;-72
2023/03/17 01:40:11;;;;;;;;;;;;;;;;;;5074216;28;19974;-72
2023/03/17 01:42:37;;;;;;;;;;;;;;;;;;5073109;28;19913;-74
2023/03/17 01:45:04;;;;;;;;;;;;;;;;;;5074292;28;19909;-73
2023/03/17 01:47:30;;;;;;;;;;;;;;;;;;5074243;28;19999;-73
2023/03/17 01:49:57;;;;;;;;;;;;;;;;;;5073992;28;19917;-74
2023/03/17 01:52:23;;;;;;;;;;;;;;;;;;5073866;28;19908;-72
2023/03/17 01:54:49;;;;;;;;;;;;;;;;;;5074170;28;19915;-73
2023/03/17 01:57:15;;;;;;;;;;;;;;;;;;5074071;28;19909;-75
2023/03/17 01:59:41;;;;;;;;;;;;;;;;;;5072805;28;19913;-73
2023/03/17 02:02:07;;;;;;;;;;;;;;;;;;5074040;28;19915;-73
2023/03/17 02:04:33;;;;;;;;;;;;;;;;;;5072710;28;19908;-72
2023/03/17 02:06:59;;;;;;;;;;;;;;;;;;5073933;28;20029;-73
2023/03/17 02:09:25;;;;;;;;;;;;;;;;;;5073966;28;19967;-73
2023/03/17 02:11:51;;;;;;;;;;;;;;;;;;5073881;28;19916;-72
2023/03/17 02:14:17;;;;;;;;;;;;;;;;;;5074260;28;19916;-73
2023/03/17 02:16:43;;;;;;;;;;;;;;;;;;5074135;28;19909;-73
2023/03/17 02:19:10;;;;;;;;;;;;;;;;;;5073972;28;19944;-72
2023/03/17 02:21:36;;;;;;;;;;;;;;;;;;5073792;28;19915;-73
2023/03/17 02:24:02;;;;;;;;;;;;;;;;;;5073762;28;20308;-72
2023/03/17 02:26:28;;;;;;;;;;;;;;;;;;5073910;28;19949;-73
2023/03/17 02:28:53;;;;;;;;;;;;;;;;;;5073649;28;19913;-73
2023/03/17 02:31:20;;;;;;;;;;;;;;;;;;5073690;28;20281;-72
2023/03/17 02:33:46;;;;;;;;;;;;;;;;;;5073769;28;19999;-74
2023/03/17 02:36:12;;;;;;;;;;;;;;;;;;5072395;28;20068;-73
2023/03/17 02:38:38;;;;;;;;;;;;;;;;;;5072317;28;20334;-73
2023/03/17 02:41:05;;;;;;;;;;;;;;;;;;5073864;28;19920;-73
2023/03/17 02:43:31;;;;;;;;;;;;;;;;;;5072268;28;19909;-74
2023/03/17 02:45:57;;;;;;;;;;;;;;;;;;5073563;28;20037;-72
2023/03/17 02:48:23;;;;;;;;;;;;;;;;;;5073814;28;19955;-73
2023/03/17 02:50:49;;;;;;;;;;;;;;;;;;5073511;28;19909;-73
2023/03/17 02:53:14;;;;;;;;;;;;;;;;;;5073552;28;19909;-72
2023/03/17 02:55:40;;;;;;;;;;;;;;;;;;5073505;28;20399;-73
2023/03/17 02:58:07;;;;;;;;;;;;;;;;;;5073351;28;19912;-74
2023/03/17 03:00:33;;;;;;;;;;;;;;;;;;5073848;28;19963;-74
2023/03/17 03:02:59;;;;;;;;;;;;;;;;;;5074750;28;20292;-73
2023/03/17 03:05:25;;;;;;;;;;;;;;;;;;5077381;28;19908;-74
2023/03/17 03:07:51;;;;;;;;;;;;;;;;;;5077381;28;19913;-73
2023/03/17 03:10:17;;;;;;;;;;;;;;;;;;5077186;28;19923;-74
2023/03/17 03:12:43;;;;;;;;;;;;;;;;;;5077444;28;19909;-73
2023/03/17 03:15:09;;;;;;;;;;;;;;;;;;5077457;28;19916;-72
2023/03/17 03:17:35;;;;;;;;;;;;;;;;;;5077335;28;19909;-73
2023/03/17 03:20:01;;;;;;;;;;;;;;;;;;5077100;28;19909;-73
2023/03/17 03:22:27;;;;;;;;;;;;;;;;;;5077016;28;19955;-73
2023/03/17 03:24:53;;;;;;;;;;;;;;;;;;5075680;28;19908;-73
2023/03/17 03:27:19;;;;;;;;;;;;;;;;;;5076909;28;19909;-73
2023/03/17 03:29:45;;;;;;;;;;;;;;;;;;5076810;28;19920;-74
2023/03/17 03:32:11;;;;;;;;;;;;;;;;;;5076859;28;19909;-75
2023/03/17 03:34:37;;;;;;;;;;;;;;;;;;5075533;28;19956;-73
2023/03/17 03:37:03;;;;;;;;;;;;;;;;;;5076777;28;20384;-73
2023/03/17 03:39:29;;;;;;;;;;;;;;;;;;5076568;28;19928;-72
2023/03/17 03:41:57;;;;;;;;;;;;;;;;;;5076844;28;19908;-73
2023/03/17 03:44:22;;;;;;;;;;;;;;;;;;5075325;28;19936;-73
2023/03/17 03:46:48;;;;;;;;;;;;;;;;;;5076839;28;19962;-72
2023/03/17 03:49:15;;;;;;;;;;;;;;;;;;5076507;28;19912;-73
2023/03/17 03:51:41;;;;;;;;;;;;;;;;;;5076715;28;20061;-74
2023/03/17 03:54:07;;;;;;;;;;;;;;;;;;5076528;28;19933;-73
2023/03/17 03:56:33;;;;;;;;;;;;;;;;;;5075052;28;19959;-73
2023/03/17 03:58:58;;;;;;;;;;;;;;;;;;5076517;28;19908;-74
2023/03/17 04:01:24;;;;;;;;;;;;;;;;;;5075045;28;20326;-73
2023/03/17 04:03:50;;;;;;;;;;;;;;;;;;5076253;28;19944;-72
2023/03/17 04:06:16;;;;;;;;;;;;;;;;;;5076282;28;19908;-73
2023/03/17 04:08:42;;;;;;;;;;;;;;;;;;5076169;28;20296;-74
2023/03/17 04:11:08;;;;;;;;;;;;;;;;;;5074908;28;19909;-73
2023/03/17 04:13:34;;;;;;;;;;;;;;;;;;5074358;28;19909;-73
2023/03/17 04:16:01;;;;;;;;;;;;;;;;;;5076084;28;19908;-74
2023/03/17 04:18:26;;;;;;;;;;;;;;;;;;5076094;28;19997;-73
2023/03/17 04:20:52;;;;;;;;;;;;;;;;;;5074708;28;19936;-72
2023/03/17 04:23:18;;;;;;;;;;;;;;;;;;5075913;28;19909;-74
2023/03/17 04:25:44;;;;;;;;;;;;;;;;;;5076288;28;20300;-73
2023/03/17 04:28:11;;;;;;;;;;;;;;;;;;5074470;28;20003;-72
2023/03/17 04:30:36;;;;;;;;;;;;;;;;;;5075772;28;19908;-73
2023/03/17 04:33:02;;;;;;;;;;;;;;;;;;5075752;28;20004;-74
2023/03/17 04:35:28;;;;;;;;;;;;;;;;;;5074442;28;19915;-73
2023/03/17 04:37:54;;;;;;;;;;;;;;;;;;5075738;28;19966;-74
2023/03/17 04:40:20;;;;;;;;;;;;;;;;;;5075565;28;19925;-73
2023/03/17 04:42:46;;;;;;;;;;;;;;;;;;5075593;28;19909;-73
2023/03/17 04:45:14;;;;;;;;;;;;;;;;;;5075552;28;19909;-73
2023/03/17 04:47:40;;;;;;;;;;;;;;;;;;5075515;28;20020;-73
2023/03/17 04:50:07;;;;;;;;;;;;;;;;;;5075599;28;20024;-73
2023/03/17 04:52:33;;;;;;;;;;;;;;;;;;5075391;28;19916;-75
2023/03/17 04:54:59;;;;;;;;;;;;;;;;;;5075520;28;19908;-72
2023/03/17 04:57:25;;;;;;;;;;;;;;;;;;5075207;28;19915;-72
2023/03/17 04:59:51;;;;;;;;;;;;;;;;;;5075429;28;19915;-75
2023/03/17 05:02:17;;;;;;;;;;;;;;;;;;5075524;28;20396;-72
2023/03/17 05:04:44;;;;;;;;;;;;;;;;;;5075241;28;19908;-72
2023/03/17 05:07:10;;;;;;;;;;;;;;;;;;5073778;28;19908;-73
2023/03/17 05:09:35;;;;;;;;;;;;;;;;;;5074951;28;19913;-73
2023/03/17 05:12:01;;;;;;;;;;;;;;;;;;5075322;28;19913;-74
2023/03/17 05:14:27;;;;;;;;;;;;;;;;;;5074962;28;20285;-73
2023/03/17 05:16:53;;;;;;;;;;;;;;;;;;5074965;28;19958;-73
2023/03/17 05:19:19;;;;;;;;;;;;;;;;;;5074815;28;19984;-72
2023/03/17 05:21:46;;;;;;;;;;;;;;;;;;5074814;28;19909;-73
2023/03/17 05:24:12;;;;;;;;;;;;;;;;;;5074733;28;20373;-74
2023/03/17 05:26:38;;;;;;;;;;;;;;;;;;5074048;28;19913;-74
2023/03/17 05:29:04;;;;;;;;;;;;;;;;;;5074688;28;19919;-73
2023/03/17 05:31:30;;;;;;;;;;;;;;;;;;5073344;28;19909;-72
2023/03/17 05:33:56;;;;;;;;;;;;;;;;;;5074711;28;19954;-73
2023/03/17 05:36:22;;;;;;;;;;;;;;;;;;5074478;28;19912;-73
2023/03/17 05:38:48;;;;;;;;;;;;;;;;;;5074268;28;20015;-73
2023/03/17 05:41:14;;;;;;;;;;;;;;;;;;5074596;28;19966;-73
2023/03/17 05:43:40;;;;;;;;;;;;;;;;;;5073073;28;19909;-72
2023/03/17 05:46:07;;;;;;;;;;;;;;;;;;5074334;28;19915;-73
2023/03/17 05:48:32;;;;;;;;;;;;;;;;;;5074466;28;19924;-73
2023/03/17 05:50:59;;;;;;;;;;;;;;;;;;5074260;28;19908;-72
2023/03/17 05:53:25;;;;;;;;;;;;;;;;;;5074172;28;19908;-73
2023/03/17 05:55:51;;;;;;;;;;;;;;;;;;5074190;28;19908;-73
2023/03/17 05:58:18;;;;;;;;;;;;;;;;;;5074405;28;19919;-73
2023/03/17 06:00:44;;;;;;;;;;;;;;;;;;5072828;28;20296;-72
2023/03/17 06:03:10;;;;;;;;;;;;;;;;;;5074183;28;19931;-73
2023/03/17 06:05:36;;;;;;;;;;;;;;;;;;5074074;28;20373;-73
2023/03/17 06:08:03;;;;;;;;;;;;;;;;;;5073977;28;19915;-72
2023/03/17 06:10:30;;;;;;;;;;;;;;;;;;5073974;28;19919;-72
2023/03/17 06:12:56;;;;;;;;;;;;;;;;;;5072612;28;19940;-74
2023/03/17 06:15:21;;;;;;;;;;;;;;;;;;5073975;28;19916;-73
2023/03/17 06:17:47;;;;;;;;;;;;;;;;;;5073901;28;19913;-73
2023/03/17 06:20:13;;;;;;;;;;;;;;;;;;5073957;28;19909;-72
2023/03/17 06:22:39;;;;;;;;;;;;;;;;;;5073760;28;19976;-74
2023/03/17 06:25:05;;;;;;;;;;;;;;;;;;5073772;28;19908;-74
2023/03/17 06:27:31;;;;;;;;;;;;;;;;;;5073762;28;19915;-73
2023/03/17 06:29:59;;;;;;;;;;;;;;;;;;5073858;28;19916;-72
2023/03/17 06:32:25;;;;;;;;;;;;;;;;;;5073681;28;19915;-73
2023/03/17 06:34:52;;;;;;;;;;;;;;;;;;5073686;28;19909;-73
2023/03/17 06:37:18;;;;;;;;;;;;;;;;;;5073461;28;19913;-74
2023/03/17 06:39:44;;;;;;;;;;;;;;;;;;5073629;28;19927;-75
2023/03/17 06:42:10;;;;;;;;;;;;;;;;;;5073568;28;19915;-73
2023/03/17 06:44:36;;;;;;;;;;;;;;;;;;5073783;28;19938;-73
2023/03/17 06:47:03;;;;;;;;;;;;;;;;;;5073614;28;19962;-73
2023/03/17 06:49:29;;;;;;;;;;;;;;;;;;5073286;28;19912;-73
2023/03/17 06:51:55;;;;;;;;;;;;;;;;;;5073329;28;19916;-74
2023/03/17 06:54:24;;;;;;;;;;;;;;;;;;5073588;28;19908;-72
2023/03/17 06:56:50;;;;;;;;;;;;;;;;;;5073287;28;19909;-73
2023/03/17 06:59:16;;;;;;;;;;;;;;;;;;5073529;28;20281;-73
2023/03/17 07:01:42;;;;;;;;;;;;;;;;;;5073484;28;19908;-75
2023/03/17 07:04:08;;;;;;;;;;;;;;;;;;5073749;28;19943;-73
2023/03/17 07:06:34;;;;;;;;;;;;;;;;;;5073660;28;19958;-72
2023/03/17 07:09:01;;;;;;;;;;;;;;;;;;5073239;28;19919;-74
2023/03/17 07:11:28;;;;;;;;;;;;;;;;;;5073331;28;19916;-74
2023/03/17 07:13:54;;;;;;;;;;;;;;;;;;5071988;28;19909;-73
2023/03/17 07:16:20;;;;;;;;;;;;;;;;;;5073371;28;19982;-72
2023/03/17 07:18:46;;;;;;;;;;;;;;;;;;5073219;28;19912;-74
2023/03/17 07:21:12;;;;;;;;;;;;;;;;;;5073237;28;19908;-74
2023/03/17 07:23:37;;;;;;;;;;;;;;;;;;5073171;28;20006;-73
2023/03/17 07:26:03;;;;;;;;;;;;;;;;;;5073215;28;19916;-73
2023/03/17 07:28:29;;;;;;;;;;;;;;;;;;5073138;28;19909;-73
2023/03/17 07:30:56;;;;;;;;;;;;;;;;;;5073089;28;19909;-74
2023/03/17 07:33:22;;;;;;;;;;;;;;;;;;5073102;28;19909;-72
2023/03/17 07:35:48;;;;;;;;;;;;;;;;;;5073239;28;20269;-73
2023/03/17 07:38:15;;;;;;;;;;;;;;;;;;5073172;28;19908;-74
2023/03/17 07:40:41;;;;;;;;;;;;;;;;;;5072661;28;19931;-73
2023/03/17 07:43:07;;;;;;;;;;;;;;;;;;5071728;28;20007;-72
2023/03/17 07:45:34;;;;;;;;;;;;;;;;;;5073412;28;19915;-74
2023/03/17 07:48:01;;;;;;;;;;;;;;;;;;5073140;28;19955;-73
2023/03/17 07:50:27;;;;;;;;;;;;;;;;;;5076219;28;19912;-72
2023/03/17 07:52:53;;;;;;;;;;;;;;;;;;5076513;28;19908;-73
2023/03/17 07:55:19;;;;;;;;;;;;;;;;;;5076473;28;19908;-73
2023/03/17 07:57:45;;;;;;;;;;;;;;;;;;5075062;28;19958;-72
2023/03/17 08:00:12;;;;;;;;;;;;;;;;;;5076383;28;20353;-73
2023/03/17 08:02:38;;;;;;;;;;;;;;;;;;5076521;28;19929;-74
2023/03/17 08:05:06;;;;;;;;;;;;;;;;;;5076364;28;19908;-72
2023/03/17 08:07:32;;;;;;;;;;;;;;;;;;5075004;28;20034;-72
2023/03/17 08:09:58;;;;;;;;;;;;;;;;;;5076125;28;19960;-73
2023/03/17 08:12:24;;;;;;;;;;;;;;;;;;5076315;28;19916;-74
2023/03/17 08:14:50;;;;;;;;;;;;;;;;;;5076194;28;20284;-73
2023/03/17 08:17:16;;;;;;;;;;;;;;;;;;5074791;28;19956;-73
2023/03/17 08:19:42;;;;;;;;;;;;;;;;;;5075990;28;19909;-73
2023/03/17 08:22:08;;;;;;;;;;;;;;;;;;5076162;28;19963;-74
2023/03/17 08:24:35;;;;;;;;;;;;;;;;;;5076259;28;19916;-73
2023/03/17 08:27:01;;;;;;;;;;;;;;;;;;5075746;28;19908;-73
2023/03/17 08:29:28;;;;;;;;;;;;;;;;;;5074542;28;20003;-73
2023/03/17 08:31:56;;;;;;;;;;;;;;;;;;5075673;28;19908;-73
2023/03/17 08:34:22;;;;;;;;;;;;;;;;;;5075870;28;19908;-73
2023/03/17 08:36:48;;;;;;;;;;;;;;;;;;5075978;28;20404;-73
2023/03/17 08:39:14;;;;;;;;;;;;;;;;;;5075520;28;19951;-73
2023/03/17 08:41:42;;;;;;;;;;;;;;;;;;5075120;28;20215;-71
2023/03/17 08:44:08;;;;;;;;;;;;;;;;;;5074215;28;20444;-72
2023/03/17 08:46:34;;;;;;;;;;;;;;;;;;5075540;28;19948;-73
2023/03/17 08:49:00;;;;;;;;;;;;;;;;;;5074167;28;19913;-73
2023/03/17 08:51:27;;;;;;;;;;;;;;;;;;5075409;28;19909;-73
2023/03/17 08:53:53;;;;;;;;;;;;;;;;;;5075625;28;20381;-72
2023/03/17 08:56:20;;;;;;;;;;;;;;;;;;5075285;28;19931;-74
2023/03/17 08:58:46;;;;;;;;;;;;;;;;;;5075307;28;20413;-73
2023/03/17 09:01:12;;;;;;;;;;;;;;;;;;5075165;28;19915;-73
2023/03/17 09:03:38;;;;;;;;;;;;;;;;;;5073882;28;19913;-74
2023/03/17 09:06:05;;;;;;;;;;;;;;;;;;5073851;28;19908;-74
2023/03/17 09:08:31;;;;;;;;;;;;;;;;;;5075022;28;19909;-73
2023/03/17 09:10:57;;;;;;;;;;;;;;;;;;5075031;28;20377;-74
2023/03/17 09:13:23;;;;;;;;;;;;;;;;;;5075448;28;20006;-74
2023/03/17 09:15:49;;;;;;;;;;;;;;;;;;5074927;28;19909;-73
2023/03/17 09:18:15;;;;;;;;;;;;;;;;;;5075023;28;19961;-74
2023/03/17 09:20:41;;;;;;;;;;;;;;;;;;5074876;28;19912;-73
2023/03/17 09:23:07;;;;;;;;;;;;;;;;;;5074885;28;19908;-74
2023/03/17 09:25:33;;;;;;;;;;;;;;;;;;5073484;28;19909;-75
2023/03/17 09:27:59;;;;;;;;;;;;;;;;;;5074756;28;19908;-74
2023/03/17 09:30:25;;;;;;;;;;;;;;;;;;5074707;28;19912;-73
2023/03/17 09:32:51;;;;;;;;;;;;;;;;;;5074579;28;19915;-74
2023/03/17 09:35:18;;;;;;;;;;;;;;;;;;5073936;28;20006;-74
2023/03/17 09:37:44;;;;;;;;;;;;;;;;;;5074484;28;19916;-73
2023/03/17 09:40:10;;;;;;;;;;;;;;;;;;5074222;28;19920;-74
2023/03/17 09:42:35;;;;;;;;;;;;;;;;;;5074405;28;19908;-74
2023/03/17 09:45:02;;;;;;;;;;;;;;;;;;5074355;28;20390;-74
2023/03/17 09:47:28;;;;;;;;;;;;;;;;;;5074292;28;19913;-74
2023/03/17 09:49:54;;;;;;;;;;;;;;;;;;5074356;28;20015;-75
2023/03/17 09:52:20;;;;;;;;;;;;;;;;;;5074171;28;19955;-73
2023/03/17 09:54:48;;;;;;;;;;;;;;;;;;5074228;28;20030;-73
2023/03/17 09:57:15;;;;;;;;;;;;;;;;;;5074109;28;19916;-73
2023/03/17 09:59:42;;;;;;;;;;;;;;;;;;5074084;28;19955;-75
2023/03/17 10:02:08;;;;;;;;;;;;;;;;;;5074313;28;20360;-73
2023/03/17 10:04:35;;;;;;;;;;;;;;;;;;5074015;28;20011;-73
2023/03/17 10:07:02;;;;;;;;;;;;;;;;;;5073990;28;20364;-74
2023/03/17 10:09:28;;;;;;;;;;;;;;;;;;5073869;28;20045;-74
2023/03/17 10:11:54;;;;;;;;;;;;;;;;;;5073733;28;19908;-75
2023/03/17 10:14:22;;;;;;;;;;;;;;;;;;5073832;28;19909;-74
2023/03/17 10:16:48;;;;;;;;;;;;;;;;;;5072544;28;20280;-73
2023/03/17 10:19:14;;;;;;;;;;;;;;;;;;5073738;28;20425;-74
2023/03/17 10:21:40;;;;;;;;;;;;;;;;;;5074192;28;19912;-75
2023/03/17 10:24:07;;;;;;;;;;;;;;;;;;5073804;28;19999;-75
2023/03/17 10:26:32;;;;;;;;;;;;;;;;;;5073716;28;20356;-76
2023/03/17 10:29:02;;;;;;;;;;;;;;;;;;5072344;28;19967;-76
2023/03/17 10:31:31;;;;;;;;;;;;;;;;;;5073381;28;19915;-74
2023/03/17 10:33:57;;;;;;;;;;;;;;;;;;5073991;28;19909;-74
2023/03/17 10:36:23;;;;;;;;;;;;;;;;;;5073761;28;19908;-74
2023/03/17 10:38:50;;;;;;;;;;;;;;;;;;5073467;28;19962;-75
2023/03/17 10:41:16;;;;;;;;;;;;;;;;;;5073659;28;20426;-75
2023/03/17 10:43:43;;;;;;;;;;;;;;;;;;5073568;28;19958;-74
2023/03/17 10:46:09;;;;;;;;;;;;;;;;;;5073787;28;19958;-74
2023/03/17 10:48:35;;;;;;;;;;;;;;;;;;5073460;28;19944;-75
2023/03/17 10:51:02;;;;;;;;;;;;;;;;;;5073506;28;19952;-75
2023/03/17 10:53:28;;;;;;;;;;;;;;;;;;5073434;28;19919;-74
2023/03/17 10:55:54;;;;;;;;;;;;;;;;;;5073443;28;19909;-73
2023/03/17 10:58:20;;;;;;;;;;;;;;;;;;5073396;28;20003;-75
2023/03/17 11:00:46;;;;;;;;;;;;;;;;;;5073443;28;19908;-74
2023/03/17 11:03:12;;;;;;;;;;;;;;;;;;5073384;28;19908;-76
2023/03/17 11:05:38;;;;;;;;;;;;;;;;;;5073354;28;19912;-75
2023/03/17 11:08:04;;;;;;;;;;;;;;;;;;5073608;28;19909;-76
2023/03/17 11:10:32;;;;;;;;;;;;;;;;;;5073335;28;19912;-76
2023/03/17 11:12:59;;;;;;;;;;;;;;;;;;5073336;28;20386;-75
2023/03/17 11:15:26;;;;;;;;;;;;;;;;;;5073333;28;19915;-76
2023/03/17 11:17:52;;;;;;;;;;;;;;;;;;5073448;28;20343;-75
2023/03/17 11:20:18;;;;;;;;;;;;;;;;;;5073338;28;19912;-75
2023/03/17 11:22:45;;;;;;;;;;;;;;;;;;5073989;28;20003;-75
2023/03/17 11:25:11;;;;;;;;;;;;;;;;;;5076599;28;19909;-75
2023/03/17 11:27:37;;;;;;;;;;;;;;;;;;5077291;28;19955;-76
2023/03/17 11:30:04;;;;;;;;;;;;;;;;;;5077086;28;19912;-75
2023/03/17 11:32:30;;;;;;;;;;;;;;;;;;5073011;28;19908;-74
2023/03/17 11:34:56;;;;;;;;;;;;;;;;;;5068035;28;19914;-76
2023/03/17 11:37:22;;;;;;;;;;;;;;;;;;5076430;28;19970;-74
2023/03/17 11:39:48;;;;;;;;;;;;;;;;;;5075910;28;19971;-73
2023/03/17 11:42:14;;;;;;;;;;;;;;;;;;5076151;28;20375;-75
2023/03/17 11:44:40;;;;;;;;;;;;;;;;;;5076046;28;19913;-73
2023/03/17 11:47:07;;;;;;;;;;;;;;;;;;5076091;28;19962;-75
2023/03/17 11:49:33;;;;;;;;;;;;;;;;;;5075977;28;19912;-74
2023/03/17 11:52:00;;;;;;;;;;;;;;;;;;5073520;28;20369;-73
2023/03/17 11:54:26;;;;;;;;;;;;;;;;;;5075966;28;19909;-74
2023/03/17 11:56:53;;;;;;;;;;;;;;;;;;5076018;28;19937;-75
2023/03/17 11:59:19;;;;;;;;;;;;;;;;;;5075764;28;19912;-75
2023/03/17 12:01:45;;;;;;;;;;;;;;;;;;5075902;28;19961;-74
2023/03/17 12:04:11;;;;;;;;;;;;;;;;;;5075785;28;20323;-73
2023/03/17 12:06:37;;;;;;;;;;;;;;;;;;5074700;28;19962;-74
2023/03/17 12:09:05;;;;;;;;;;;;;;;;;;5075577;28;19919;-74
2023/03/17 12:11:32;;;;;;;;;;;;;;;;;;5074447;28;20398;-75
2023/03/17 12:13:58;;;;;;;;;;;;;;;;;;5075573;28;20431;-74
2023/03/17 12:16:24;;;;;;;;;;;;;;;;;;5070414;28;19939;-74
2023/03/17 12:18:50;;;;;;;;;;;;;;;;;;5069103;28;20435;-76
2023/03/17 12:21:17;;;;;;;;;;;;;;;;;;5075659;28;19908;-73
2023/03/17 12:23:44;;;;;;;;;;;;;;;;;;5075298;28;20304;-74
2023/03/17 12:26:10;;;;;;;;;;;;;;;;;;5075317;28;19955;-73
2023/03/17 12:28:36;;;;;;;;;;;;;;;;;;5075267;28;19908;-75
2023/03/17 12:31:02;;;;;;;;;;;;;;;;;;5075148;28;19945;-74
2023/03/17 12:33:28;;;;;;;;;;;;;;;;;;5075500;28;19919;-73
2023/03/17 12:35:57;;;;;;;;;;;;;;;;;;5075039;28;19912;-74
2023/03/17 12:38:22;;;;;;;;;;;;;;;;;;5074445;28;19915;-74
2023/03/17 12:40:49;;;;;;;;;;;;;;;;;;5075237;28;19924;-74
2023/03/17 12:43:15;;;;;;;;;;;;;;;;;;5075614;28;19995;-74
2023/03/17 12:45:41;;;;;;;;;;;;;;;;;;5074294;28;19920;-73
2023/03/17 12:48:07;;;;;;;;;;;;;;;;;;5075775;28;19908;-75
2023/03/17 12:50:33;;;;;;;;;;;;;;;;;;5075294;28;19913;-74
2023/03/17 12:52:59;;;;;;;;;;;;;;;;;;5075457;28;19971;-74
2023/03/17 12:55:26;;;;;;;;;;;;;;;;;;5075589;28;19908;-73
2023/03/17 12:57:52;;;;;;;;;;;;;;;;;;5075269;28;19934;-74
2023/03/17 13:00:19;;;;;;;;;;;;;;;;;;5075315;28;19909;-74
2023/03/17 13:02:45;;;;;;;;;;;;;;;;;;5075310;28;20394;-73
2023/03/17 13:05:11;;;;;;;;;;;;;;;;;;5073954;28;19909;-74
2023/03/17 13:07:37;;;;;;;;;;;;;;;;;;5075168;28;19909;-74
2023/03/17 13:10:02;;;;;;;;;;;;;;;;;;5075023;28;19913;-73
2023/03/17 13:12:28;;;;;;;;;;;;;;;;;;5075217;28;20284;-75
2023/03/17 13:14:54;;;;;;;;;;;;;;;;;;5075018;28;19908;-76
2023/03/17 13:17:22;;;;;;;;;;;;;;;;;;5075162;28;19962;-75
2023/03/17 13:19:48;;;;;;;;;;;;;;;;;;5075073;28;19916;-72
2023/03/17 13:22:14;;;;;;;;;;;;;;;;;;5075079;28;19916;-73
2023/03/17 13:24:41;;;;;;;;;;;;;;;;;;5074888;28;20288;-72
2023/03/17 13:27:06;;;;;;;;;;;;;;;;;;5074747;28;19908;-73
2023/03/17 13:29:32;;;;;;;;;;;;;;;;;;5075049;28;20269;-73
2023/03/17 13:31:58;;;;;;;;;;;;;;;;;;5074615;28;20007;-72
2023/03/17 13:34:24;;;;;;;;;;;;;;;;;;5073301;28;19962;-71
2023/03/17 13:36:51;;;;;;;;;;;;;;;;;;5074698;28;19916;-72
2023/03/17 13:39:17;;;;;;;;;;;;;;;;;;5074327;28;19966;-73
2023/03/17 13:41:43;;;;;;;;;;;;;;;;;;5074930;28;20357;-74
2023/03/17 13:44:09;;;;;;;;;;;;;;;;;;5074411;28;19908;-74
2023/03/17 13:46:35;;;;;;;;;;;;;;;;;;5073837;28;19908;-72
2023/03/17 13:49:01;;;;;;;;;;;;;;;;;;5074222;28;19912;-72
2023/03/17 13:51:27;;;;;;;;;;;;;;;;;;5074637;28;20258;-72
2023/03/17 13:53:53;;;;;;;;;;;;;;;;;;5074198;28;20001;-72
2023/03/17 13:56:19;;;;;;;;;;;;;;;;;;5074401;28;19912;-73
2023/03/17 13:58:45;;;;;;;;;;;;;;;;;;5074081;28;20319;-73
2023/03/17 14:01:11;;;;;;;;;;;;;;;;;;5074536;28;20392;-72
2023/03/17 14:03:36;;;;;;;;;;;;;;;;;;5074058;28;19908;-73
2023/03/17 14:06:02;;;;;;;;;;;;;;;;;;5074045;28;19909;-71
2023/03/17 14:08:28;;;;;;;;;;;;;;;;;;5074071;28;19954;-74
2023/03/17 14:10:54;;;;;;;;;;;;;;;;;;5074011;28;19908;-74
2023/03/17 14:13:20;;;;;;;;;;;;;;;;;;5073992;28;19916;-74
2023/03/17 14:15:46;;;;;;;;;;;;;;;;;;5073996;28;19908;-73
2023/03/17 14:18:12;;;;;;;;;;;;;;;;;;5073888;28;20356;-75
2023/03/17 14:20:38;;;;;;;;;;;;;;;;;;5072516;28;19924;-73
2023/03/17 14:23:05;;;;;;;;;;;;;;;;;;5074218;28;19909;-74
2023/03/17 14:25:31;;;;;;;;;;;;;;;;;;5073856;28;19989;-73
2023/03/17 14:27:57;;;;;;;;;;;;;;;;;;5073762;28;19954;-73
2023/03/17 14:30:23;;;;;;;;;;;;;;;;;;5073747;28;19908;-73
2023/03/17 14:32:49;;;;;;;;;;;;;;;;;;5073723;28;19912;-73
2023/03/17 14:35:15;;;;;;;;;;;;;;;;;;5072400;28;19909;-73
2023/03/17 14:37:41;;;;;;;;;;;;;;;;;;5073628;28;19912;-75
2023/03/17 14:40:09;;;;;;;;;;;;;;;;;;5073363;28;19928;-74
2023/03/17 14:42:35;;;;;;;;;;;;;;;;;;5073586;28;19908;-74
2023/03/17 14:45:01;;;;;;;;;;;;;;;;;;5073571;28;19958;-73
2023/03/17 14:47:27;;;;;;;;;;;;;;;;;;5073569;28;19944;-74
2023/03/17 14:49:53;;;;;;;;;;;;;;;;;;5073517;28;19963;-73
2023/03/17 14:52:19;;;;;;;;;;;;;;;;;;5073578;28;19919;-72
2023/03/17 14:54:45;;;;;;;;;;;;;;;;;;5073491;28;19909;-73
2023/03/17 14:57:11;;;;;;;;;;;;;;;;;;5073548;28;19955;-74
2023/03/17 14:59:37;;;;;;;;;;;;;;;;;;5077210;28;19912;-73
2023/03/17 15:02:03;;;;;;;;;;;;;;;;;;5077623;28;19908;-73
2023/03/17 15:04:29;;;;;;;;;;;;;;;;;;5077477;28;20288;-74
2023/03/17 15:06:54;;;;;;;;;;;;;;;;;;5077863;28;19915;-73
2023/03/17 15:09:20;;;;;;;;;;;;;;;;;;5077393;28;20372;-72
2023/03/17 15:11:46;;;;;;;;;;;;;;;;;;5077567;28;19936;-72
2023/03/17 15:14:12;;;;;;;;;;;;;;;;;;5077301;28;20407;-74
2023/03/17 15:16:38;;;;;;;;;;;;;;;;;;5077227;28;20018;-74
2023/03/17 15:19:04;;;;;;;;;;;;;;;;;;5075831;28;19913;-73
2023/03/17 15:21:30;;;;;;;;;;;;;;;;;;5077149;28;19915;-74
2023/03/17 15:23:56;;;;;;;;;;;;;;;;;;5077107;28;20002;-73
2023/03/17 15:26:22;;;;;;;;;;;;;;;;;;5077070;28;20351;-72
2023/03/17 15:28:48;;;;;;;;;;;;;;;;;;5077253;28;19912;-73
2023/03/17 15:31:14;;;;;;;;;;;;;;;;;;5076912;28;19915;-73
2023/03/17 15:33:40;;;;;;;;;;;;;;;;;;5076934;28;19908;-74
2023/03/17 15:36:09;;;;;;;;;;;;;;;;;;5076957;28;19915;-73
2023/03/17 15:38:37;;;;;;;;;;;;;;;;;;5075515;28;20429;-73
2023/03/17 15:41:03;;;;;;;;;;;;;;;;;;5076582;28;20012;-73
2023/03/17 15:43:29;;;;;;;;;;;;;;;;;;5076945;28;20454;-73
2023/03/17 15:45:55;;;;;;;;;;;;;;;;;;5076685;28;20368;-73
2023/03/17 15:48:25;;;;;;;;;;;;;;;;;;5075324;28;19911;-73
2023/03/17 15:50:51;;;;;;;;;;;;;;;;;;5076585;28;19909;-73
2023/03/17 15:53:17;;;;;;;;;;;;;;;;;;5076563;28;19905;-74
2023/03/17 15:55:43;;;;;;;;;;;;;;;;;;5076578;28;19908;-73
2023/03/17 15:58:09;;;;;;;;;;;;;;;;;;5076321;28;19915;-74
2023/03/17 16:00:35;;;;;;;;;;;;;;;;;;5076500;28;19913;-73
2023/03/17 16:03:01;;;;;;;;;;;;;;;;;;5075074;28;19923;-73
2023/03/17 16:05:27;;;;;;;;;;;;;;;;;;5076474;28;19909;-73
2023/03/17 16:07:53;;;;;;;;;;;;;;;;;;5074985;28;20425;-74
2023/03/17 16:10:19;;;;;;;;;;;;;;;;;;5075429;28;19909;-74
2023/03/17 16:12:45;;;;;;;;;;;;;;;;;;5076206;28;19954;-74
2023/03/17 16:15:11;;;;;;;;;;;;;;;;;;5076687;28;19908;-74
2023/03/17 16:17:38;;;;;;;;;;;;;;;;;;5076140;28;19910;-74
2023/03/17 16:20:04;;;;;;;;;;;;;;;;;;5074662;28;19916;-74
2023/03/17 16:22:30;;;;;;;;;;;;;;;;;;5076033;28;19915;-74
2023/03/17 16:25:02;;;;;;;;;;;;;;;;;;5075445;28;19908;-74
2023/03/17 16:27:28;;;;;;;;;;;;;;;;;;5074447;28;19913;-73
2023/03/17 16:29:54;;;;;;;;;;;;;;;;;;5075964;28;19908;-74
2023/03/17 16:32:21;;;;;;;;;;;;;;;;;;5076226;28;19936;-74
2023/03/17 16:34:47;;;;;;;;;;;;;;;;;;5076047;28;19913;-75
2023/03/17 16:37:12;;;;;;;;;;;;;;;;;;5074325;28;19915;-75